Time;durP1;ratioP1;P1;durP2;ratioP2;P2;SDS_P1;SDS_P2;PMS_P1;PMS_P2;Temp;Humidity;BMP_temperature;BMP_pressure;BME280_temperature;BME280_humidity;BME280_pressure;Samples;Min_cycle;Max_cycle;Signal;HPM_P1;HPM_P2
2022/09/01 00:01:09;;;;;;;0.93;0.70;;;;;;;28.50;43.55;98975.16;5111224;28;20051;-58
2022/09/01 00:03:35;;;;;;;1.48;0.90;;;;;;;28.50;43.64;98969.53;5111254;28;20479;-60
2022/09/01 00:06:02;;;;;;;1.52;0.98;;;;;;;28.48;43.68;98969.97;5111103;28;20078;-58
2022/09/01 00:08:28;;;;;;;1.23;0.80;;;;;;;28.47;43.66;98976.84;5111312;28;20075;-58
2022/09/01 00:10:53;;;;;;;0.90;0.73;;;;;;;28.49;43.47;98973.59;5111268;28;20113;-60
2022/09/01 00:13:19;;;;;;;1.05;0.80;;;;;;;28.49;43.70;98967.94;5111019;28;20040;-60
2022/09/01 00:15:44;;;;;;;1.05;0.80;;;;;;;28.49;43.54;98968.75;5111144;28;20483;-58
2022/09/01 00:18:09;;;;;;;1.48;0.80;;;;;;;28.49;43.57;98971.56;5111081;28;20052;-60
2022/09/01 00:20:35;;;;;;;1.45;0.90;;;;;;;28.48;43.95;98974.81;5110853;28;20050;-58
2022/09/01 00:23:00;;;;;;;1.30;0.80;;;;;;;28.46;43.39;98980.09;5110799;28;20043;-58
2022/09/01 00:25:27;;;;;;;1.00;0.73;;;;;;;28.46;43.49;98972.44;5110698;28;20448;-60
2022/09/01 00:27:53;;;;;;;0.88;0.70;;;;;;;28.47;43.52;98976.84;5110744;28;20092;-58
2022/09/01 00:30:20;;;;;;;1.00;0.80;;;;;;;28.45;43.58;98979.31;5110877;28;20071;-58
2022/09/01 00:32:45;;;;;;;1.20;0.90;;;;;;;28.45;43.57;98979.31;5110933;28;20040;-58
2022/09/01 00:35:17;;;;;;;1.30;0.90;;;;;;;28.44;43.79;98980.53;5110809;28;20074;-58
2022/09/01 00:37:42;;;;;;;1.10;0.80;;;;;;;28.44;43.62;98983.34;5110960;28;20047;-60
2022/09/01 00:40:11;;;;;;;1.23;0.90;;;;;;;28.47;43.57;98988.09;5110751;28;20039;-60
2022/09/01 00:42:39;;;;;;;1.15;0.70;;;;;;;28.45;43.70;98984.16;5110647;28;20055;-58
2022/09/01 00:45:07;;;;;;;1.10;0.82;;;;;;;28.46;43.63;98994.94;5110522;28;20059;-58
2022/09/01 00:47:34;;;;;;;1.05;0.75;;;;;;;28.44;43.86;98988.97;5109389;28;20042;-60
2022/09/01 00:50:02;;;;;;;1.13;0.80;;;;;;;28.47;43.50;98995.75;5110528;28;20506;-60
2022/09/01 00:52:37;;;;;;;0.98;0.70;;;;;;;28.46;43.57;98991.34;5110546;28;20047;-60
2022/09/01 00:55:25;;;;;;;1.15;0.77;;;;;;;28.45;43.85;98998.22;5110369;28;20450;-60
2022/09/01 00:57:51;;;;;;;1.20;0.82;;;;;;;28.44;43.50;99000.22;5091527;28;20067;-58
2022/09/01 01:00:22;;;;;;;1.27;0.98;;;;;;;28.44;43.63;99005.06;5110488;28;20415;-60
2022/09/01 01:02:54;;;;;;;1.27;0.93;;;;;;;28.43;43.56;99000.66;5110479;28;20059;-59
2022/09/01 01:05:22;;;;;;;1.10;0.80;;;;;;;28.46;43.58;99000.59;5110255;28;20089;-60
2022/09/01 01:07:49;;;;;;;0.85;0.70;;;;;;;28.43;43.37;99004.28;5100597;28;20089;-60
2022/09/01 01:10:17;;;;;;;0.90;0.70;;;;;;;28.43;43.74;99007.09;5090075;28;20052;-60
2022/09/01 01:12:43;;;;;;;1.35;0.75;;;;;;;28.44;43.26;99014.31;5093583;28;20067;-60
2022/09/01 01:15:11;;;;;;;1.10;0.70;;;;;;;28.44;43.39;99024.75;5106311;28;20447;-58
2022/09/01 01:17:37;;;;;;;1.10;0.80;;;;;;;28.42;43.38;99022.38;5093967;28;20040;-60
2022/09/01 01:23:07;;;;;;;1.35;0.90;;;;;;;28.41;43.33;99026.41;5110149;28;20054;-60
2022/09/01 01:25:49;;;;;;;1.33;0.80;;;;;;;28.41;43.34;99028.44;5099446;28;20051;-60
2022/09/01 01:28:35;;;;;;;0.93;0.70;;;;;;;28.40;43.42;99021.22;5108563;28;20093;-60
2022/09/01 01:31:11;;;;;;;0.93;0.70;;;;;;;28.40;43.39;99038.91;5110028;28;20039;-60
2022/09/01 01:33:41;;;;;;;0.70;0.65;;;;;;;28.38;43.38;99030.09;5110098;28;20044;-58
2022/09/01 01:36:18;;;;;;;0.88;0.70;;;;;;;28.41;43.22;99040.47;5109845;28;20082;-60
2022/09/01 01:38:46;;;;;;;0.82;0.70;;;;;;;28.40;43.25;99041.72;5108249;28;20123;-58
2022/09/01 01:41:13;;;;;;;1.00;0.80;;;;;;;28.41;43.02;99034.06;5109585;28;20045;-58
2022/09/01 01:43:40;;;;;;;0.77;0.60;;;;;;;28.41;43.24;99046.09;5095573;28;20036;-60
2022/09/01 01:46:07;;;;;;;1.10;0.82;;;;;;;28.40;43.39;99044.53;5109953;28;20050;-58
2022/09/01 01:48:36;;;;;;;1.08;0.80;;;;;;;28.38;43.11;99049.81;5109517;28;20039;-58
2022/09/01 01:51:03;;;;;;;0.90;0.73;;;;;;;28.39;43.04;99051.38;5109784;28;20058;-58
2022/09/01 01:53:29;;;;;;;1.08;0.80;;;;;;;28.38;43.28;99051.81;5109612;28;20044;-58
2022/09/01 01:55:57;;;;;;;2.03;0.70;;;;;;;28.39;43.25;99048.56;5109781;28;20044;-60
2022/09/01 01:58:24;;;;;;;0.80;0.70;;;;;;;28.38;43.22;99055.44;5109488;28;20475;-60
2022/09/01 02:00:53;;;;;;;1.08;0.77;;;;;;;28.39;43.09;99050.59;5109146;28;20412;-60
2022/09/01 02:03:21;;;;;;;1.17;0.82;;;;;;;28.38;43.20;99054.63;5109367;28;20040;-60
2022/09/01 02:05:49;;;;;;;0.80;0.70;;;;;;;28.39;43.14;99050.59;5109391;28;20040;-60
2022/09/01 02:08:19;;;;;;;0.93;0.60;;;;;;;28.38;42.97;99052.63;5109297;28;20078;-58
2022/09/01 02:10:47;;;;;;;1.15;0.80;;;;;;;28.38;43.18;99052.63;5109611;28;20046;-60
2022/09/01 02:13:16;;;;;;;1.00;0.80;;;;;;;28.39;43.06;99050.59;5109138;28;20058;-60
2022/09/01 02:15:53;;;;;;;0.70;0.60;;;;;;;28.37;43.07;99045.41;5107458;28;20051;-58
2022/09/01 02:18:23;;;;;;;0.93;0.70;;;;;;;28.35;43.17;99052.69;5097985;28;20047;-58
2022/09/01 02:20:50;;;;;;;0.70;0.60;;;;;;;28.37;43.20;99058.69;5109252;28;20039;-58
2022/09/01 02:23:18;;;;;;;1.10;0.80;;;;;;;28.34;42.95;99054.69;5109065;28;20123;-60
2022/09/01 02:25:45;;;;;;;1.30;0.90;;;;;;;28.37;42.97;99062.28;5109233;28;20046;-58
2022/09/01 02:28:15;;;;;;;0.90;0.70;;;;;;;28.36;43.07;99060.69;5108913;28;20078;-60
2022/09/01 02:30:43;;;;;;;1.10;0.80;;;;;;;28.36;42.95;99066.34;5109083;28;20043;-58
2022/09/01 02:33:09;;;;;;;1.02;0.80;;;;;;;28.37;42.95;99064.31;5109297;28;20058;-58
2022/09/01 02:35:36;;;;;;;1.10;0.77;;;;;;;28.35;42.88;99067.53;5109020;28;20496;-58
2022/09/01 02:38:03;;;;;;;1.02;0.82;;;;;;;28.36;42.79;99071.97;5108768;28;20437;-58
2022/09/01 02:40:30;;;;;;;1.05;0.80;;;;;;;28.35;42.98;99073.16;5108988;28;20538;-58
2022/09/01 02:42:59;;;;;;;0.63;0.60;;;;;;;28.34;43.12;99071.56;5108997;28;20044;-58
2022/09/01 02:45:28;;;;;;;1.00;0.70;;;;;;;28.34;43.03;99074.38;5109017;28;20043;-58
2022/09/01 02:47:56;;;;;;;0.80;0.70;;;;;;;28.32;42.95;99064.81;5108975;28;20052;-58
2022/09/01 02:50:22;;;;;;;0.90;0.70;;;;;;;28.36;43.08;99066.34;5109115;28;20036;-58
2022/09/01 02:52:48;;;;;;;0.73;0.60;;;;;;;28.32;42.91;99071.22;5108834;28;20035;-59
2022/09/01 02:55:21;;;;;;;1.35;0.90;;;;;;;28.32;42.97;99062.78;5108894;28;20426;-58
2022/09/01 02:57:49;;;;;;;0.88;0.70;;;;;;;28.32;43.04;99062.78;5108788;28;20070;-58
2022/09/01 03:00:21;;;;;;;1.10;0.82;;;;;;;28.33;43.13;99070.00;5108611;28;20126;-58
2022/09/01 03:02:51;;;;;;;0.90;0.70;;;;;;;28.32;43.08;99071.22;5108844;28;20415;-60
2022/09/01 03:05:24;;;;;;;0.90;0.68;;;;;;;28.33;43.11;99066.41;5108564;28;20123;-58
2022/09/01 03:07:55;;;;;;;;;;;;;;;28.39;43.08;99068.25;5109452;28;20512;-58
2022/09/01 03:10:25;;;;;;;1.00;0.70;;;;;;;28.35;42.75;99070.34;5108752;28;19922;-58
2022/09/01 03:12:52;;;;;;;1.27;0.77;;;;;;;28.33;42.83;99060.78;5111922;28;20461;-60
2022/09/01 03:15:17;;;;;;;1.00;0.70;;;;;;;28.31;43.06;99060.41;5111977;28;20089;-58
2022/09/01 03:17:44;;;;;;;0.90;0.68;;;;;;;28.32;43.03;99053.56;5097876;28;20043;-58
2022/09/01 03:20:10;;;;;;;0.73;0.60;;;;;;;28.32;43.11;99059.97;5111951;28;20063;-60
2022/09/01 03:22:35;;;;;;;0.65;0.65;;;;;;;28.32;43.12;99053.56;5111962;28;20043;-58
2022/09/01 03:25:01;;;;;;;0.95;0.80;;;;;;;28.30;43.08;99056.81;5112165;28;20415;-60
2022/09/01 03:27:26;;;;;;;0.70;0.68;;;;;;;28.31;42.99;99063.22;5111748;28;20046;-59
2022/09/01 03:29:51;;;;;;;0.82;0.70;;;;;;;28.28;43.02;99053.59;5112194;28;20038;-60
2022/09/01 03:32:17;;;;;;;1.10;0.80;;;;;;;28.32;42.94;99062.78;5112003;28;20036;-59
2022/09/01 03:34:43;;;;;;;1.10;0.80;;;;;;;28.30;43.12;99062.44;5111752;28;20050;-58
2022/09/01 03:37:10;;;;;;;0.60;0.57;;;;;;;28.31;42.98;99063.22;5112060;28;20044;-58
2022/09/01 03:39:35;;;;;;;0.70;0.60;;;;;;;28.31;42.87;99068.84;5111454;28;20050;-60
2022/09/01 03:42:01;;;;;;;1.15;0.90;;;;;;;28.28;42.92;99067.66;5112067;28;20040;-60
2022/09/01 03:44:26;;;;;;;0.63;0.60;;;;;;;28.27;42.84;99063.25;5111640;28;20073;-58
2022/09/01 03:46:52;;;;;;;1.00;0.80;;;;;;;28.28;42.82;99064.84;5111606;28;20047;-57
2022/09/01 03:49:27;;;;;;;1.00;0.80;;;;;;;28.27;42.99;99063.25;5111502;28;20056;-58
2022/09/01 03:51:53;;;;;;;0.77;0.60;;;;;;;28.27;42.62;99060.44;5111126;28;20452;-60
2022/09/01 03:54:22;;;;;;;1.08;0.70;;;;;;;28.26;42.91;99064.50;5111632;28;20618;-60
2022/09/01 03:56:47;;;;;;;0.88;0.70;;;;;;;28.28;42.82;99062.03;5110726;28;20526;-58
2022/09/01 03:59:15;;;;;;;0.82;0.70;;;;;;;28.28;42.72;99052.81;5111146;28;20043;-58
2022/09/01 04:01:42;;;;;;;0.85;0.68;;;;;;;28.29;42.83;99057.19;5111618;28;20051;-60
2022/09/01 04:04:14;;;;;;;0.93;0.73;;;;;;;28.27;42.79;99060.44;5111453;28;20043;-60
2022/09/01 04:06:41;;;;;;;1.08;0.82;;;;;;;28.23;42.84;99049.28;5111148;28;20431;-58
2022/09/01 04:09:06;;;;;;;0.82;0.60;;;;;;;28.27;42.75;99063.25;5111320;28;20430;-58
2022/09/01 04:11:32;;;;;;;0.77;0.60;;;;;;;28.26;42.75;99047.63;5111169;28;20036;-60
2022/09/01 04:13:59;;;;;;;0.80;0.70;;;;;;;28.25;42.56;99054.47;5111402;28;20044;-59
2022/09/01 04:19:25;;;;;;;0.95;0.70;;;;;;;28.27;42.72;99052.00;5108398;28;20050;-60
2022/09/01 04:22:00;;;;;;;0.75;0.65;;;;;;;28.24;42.72;99055.72;5110925;28;20388;-58
2022/09/01 04:24:28;;;;;;;1.00;0.77;;;;;;;28.24;42.71;99055.72;5111106;28;20043;-60
2022/09/01 04:26:57;;;;;;;0.73;0.60;;;;;;;28.21;42.76;99053.75;5111089;28;20280;-58
2022/09/01 04:29:26;;;;;;;0.90;0.68;;;;;;;28.25;42.76;99063.69;5110681;28;20062;-60
2022/09/01 04:32:00;;;;;;;0.73;0.60;;;;;;;28.25;42.54;99060.88;5111031;28;20044;-60
2022/09/01 04:34:26;;;;;;;1.10;0.80;;;;;;;28.23;42.61;99062.56;5110646;28;20427;-58
2022/09/01 04:36:53;;;;;;;1.10;0.70;;;;;;;28.27;42.54;99059.66;5110920;28;20058;-60
2022/09/01 04:39:19;;;;;;;1.00;0.82;;;;;;;28.25;42.93;99060.88;5110622;28;20503;-60
2022/09/01 04:41:45;;;;;;;1.17;0.70;;;;;;;28.25;42.68;99060.88;5110958;28;20050;-58
2022/09/01 04:44:14;;;;;;;1.13;0.80;;;;;;;28.27;42.56;99056.84;5110937;28;20126;-60
2022/09/01 04:46:45;;;;;;;1.30;0.90;;;;;;;28.27;42.62;99060.44;5110700;28;20062;-60
2022/09/01 04:49:14;;;;;;;0.93;0.70;;;;;;;28.25;42.81;99055.25;5110838;28;20503;-58
2022/09/01 04:51:42;;;;;;;0.75;0.60;;;;;;;28.23;42.69;99056.94;5110739;28;20045;-58
2022/09/01 04:54:13;;;;;;;0.90;0.70;;;;;;;28.23;42.75;99056.94;5110679;28;20575;-58
2022/09/01 04:56:40;;;;;;;0.77;0.70;;;;;;;28.25;42.65;99054.47;5110510;28;20084;-60
2022/09/01 04:59:07;;;;;;;1.02;0.70;;;;;;;28.27;42.67;99062.47;5110628;28;20051;-58
2022/09/01 05:01:42;;;;;;;1.10;0.80;;;;;;;28.27;42.50;99057.63;5110371;28;20590;-58
2022/09/01 05:04:21;;;;;;;1.95;0.70;;;;;;;28.28;42.66;99058.44;5110540;28;20048;-58
2022/09/01 05:06:54;;;;;;;1.00;0.80;;;;;;;28.30;42.39;99056.81;5110355;28;20044;-58
2022/09/01 05:09:20;;;;;;;1.08;0.80;;;;;;;28.30;42.60;99058.81;5110005;28;20385;-58
2022/09/01 05:11:47;;;;;;;0.95;0.70;;;;;;;28.31;42.52;99057.59;5110320;28;20526;-58
2022/09/01 05:14:14;;;;;;;0.80;0.80;;;;;;;28.34;42.38;99065.94;5110246;28;20571;-60
2022/09/01 05:16:40;;;;;;;0.98;0.70;;;;;;;28.32;42.42;99062.78;5100355;28;20495;-58
2022/09/01 05:19:13;;;;;;;1.15;0.77;;;;;;;28.39;42.43;99064.66;5105705;28;20039;-58
2022/09/01 05:21:46;;;;;;;0.95;0.70;;;;;;;28.40;42.32;99063.44;5110120;28;20053;-58
2022/09/01 05:24:16;;;;;;;0.65;0.60;;;;;;;28.44;42.27;99064.94;5109920;28;20571;-57
2022/09/01 05:26:43;;;;;;;0.77;0.60;;;;;;;28.44;42.12;99056.50;5110004;28;20061;-60
2022/09/01 05:29:12;;;;;;;0.90;0.70;;;;;;;28.47;41.77;99063.28;5110032;28;20050;-60
2022/09/01 05:31:40;;;;;;;0.73;0.70;;;;;;;28.50;42.26;99066.03;5109945;28;20055;-60
2022/09/01 05:34:08;;;;;;;0.73;0.65;;;;;;;28.49;42.26;99070.03;5109419;28;20747;-58
2022/09/01 05:36:35;;;;;;;1.00;0.80;;;;;;;28.50;42.26;99077.28;5109465;28;20048;-61
2022/09/01 05:39:03;;;;;;;25.50;1.70;;;;;;;28.49;42.36;99072.84;5105039;28;20518;-57
2022/09/01 05:41:29;;;;;;;32.03;1.92;;;;;;;28.48;42.49;99067.66;5090369;28;20044;-57
2022/09/01 05:43:54;;;;;;;38.00;3.10;;;;;;;28.50;42.40;99071.66;5089394;28;20047;-62
2022/09/01 05:46:22;;;;;;;32.95;2.15;;;;;;;28.54;42.50;99074.38;5088765;28;20044;-57
2022/09/01 05:48:50;;;;;;;22.00;2.25;;;;;;;28.55;42.58;99075.94;5088898;28;20128;-61
2022/09/01 05:51:22;;;;;;;18.20;2.10;;;;;;;28.54;42.49;99070.75;5102983;28;20047;-61
2022/09/01 05:53:50;;;;;;;33.80;2.00;;;;;;;28.56;42.37;99074.72;5089376;28;20149;-61
2022/09/01 05:56:18;;;;;;;19.35;1.67;;;;;;;28.57;42.39;99070.66;5089135;28;20520;-61
2022/09/01 05:58:45;;;;;;;17.83;1.50;;;;;;;28.58;42.45;99060.22;5089414;28;20032;-61
2022/09/01 06:01:16;;;;;;;12.25;1.38;;;;;;;28.60;42.42;99074.66;5089239;28;20077;-58
2022/09/01 06:03:43;;;;;;;21.58;1.50;;;;;;;28.41;42.22;99073.44;5089074;28;20408;-57
2022/09/01 06:06:11;;;;;;;19.40;1.40;;;;;;;28.21;43.00;99070.63;5089190;28;20040;-61
2022/09/01 06:08:37;;;;;;;6.82;1.20;;;;;;;28.14;43.41;99067.97;5088675;28;20081;-61
2022/09/01 06:11:11;;;;;;;9.52;1.17;;;;;;;28.08;43.77;99078.16;5089114;28;20076;-57
2022/09/01 06:13:38;;;;;;;9.80;1.25;;;;;;;28.05;43.58;99074.16;5088576;28;20407;-62
2022/09/01 06:16:04;;;;;;;8.68;1.40;;;;;;;28.02;43.39;99066.59;5088677;28;20446;-57
2022/09/01 06:18:33;;;;;;;9.02;1.10;;;;;;;28.03;43.39;99070.22;5099719;28;20538;-61
2022/09/01 06:20:58;;;;;;;5.47;1.13;;;;;;;28.02;43.47;99066.59;5109309;28;20628;-58
2022/09/01 06:23:24;;;;;;;4.20;0.90;;;;;;;28.03;43.47;99067.41;5109087;28;20035;-61
2022/09/01 06:25:50;;;;;;;10.80;1.27;;;;;;;27.97;43.36;99067.09;5109523;28;20048;-61
2022/09/01 06:28:20;;;;;;;3.25;1.10;;;;;;;28.01;43.40;99067.84;5109239;28;20059;-62
2022/09/01 06:30:46;;;;;;;7.60;1.00;;;;;;;27.95;43.70;99064.72;5108957;28;20039;-57
2022/09/01 06:33:12;;;;;;;4.05;0.90;;;;;;;27.95;43.28;99072.38;5109174;28;20044;-57
2022/09/01 06:35:40;;;;;;;2.50;0.88;;;;;;;27.96;43.65;99077.56;5108821;28;20054;-57
2022/09/01 06:38:07;;;;;;;2.95;0.90;;;;;;;28.00;43.57;99071.06;5109117;28;20499;-62
2022/09/01 06:40:34;;;;;;;6.07;1.25;;;;;;;28.03;43.35;99075.84;5108787;28;20419;-61
2022/09/01 06:43:06;;;;;;;3.78;1.02;;;;;;;28.04;43.44;99080.22;5101828;28;20046;-57
2022/09/01 06:45:40;;;;;;;3.53;1.10;;;;;;;28.06;42.68;99074.97;5096893;28;20040;-58
2022/09/01 06:48:06;;;;;;;4.03;1.13;;;;;;;28.03;41.90;99070.22;5104193;28;20381;-57
2022/09/01 06:50:33;;;;;;;6.20;1.52;;;;;;;27.96;41.63;99077.56;5097824;28;20539;-58
2022/09/01 06:53:09;;;;;;;3.47;1.80;;;;;;;27.92;41.44;99071.19;5109470;28;20084;-61
2022/09/01 06:55:37;;;;;;;5.72;2.20;;;;;;;27.93;41.42;99075.63;5110602;28;20056;-58
2022/09/01 06:58:05;;;;;;;3.85;2.00;;;;;;;27.92;41.25;99065.56;5098155;28;20082;-62
2022/09/01 07:00:32;;;;;;;3.97;1.95;;;;;;;27.91;41.27;99072.44;5102382;28;20051;-62
2022/09/01 07:02:58;;;;;;;2.65;1.60;;;;;;;27.89;41.14;99068.47;5101638;28;20036;-57
2022/09/01 07:05:24;;;;;;;4.95;1.65;;;;;;;27.89;41.36;99071.28;5105237;28;20538;-63
2022/09/01 07:07:54;;;;;;;4.28;1.70;;;;;;;27.87;41.22;99068.91;5097213;28;20043;-57
2022/09/01 07:10:24;;;;;;;4.07;1.77;;;;;;;27.82;41.48;99063.00;5111401;28;20036;-57
2022/09/01 07:12:52;;;;;;;3.38;1.40;;;;;;;27.80;41.39;99066.25;5103745;28;20484;-61
2022/09/01 07:15:18;;;;;;;4.80;1.67;;;;;;;27.80;41.80;99073.88;5100933;28;20044;-61
2022/09/01 07:17:52;;;;;;;2.05;1.40;;;;;;;27.81;41.49;99072.66;5089778;28;20120;-58
2022/09/01 07:20:27;;;;;;;3.28;2.00;;;;;;;27.82;41.70;99077.84;5095115;28;20048;-59
2022/09/01 07:22:55;;;;;;;3.42;1.63;;;;;;;27.86;41.71;99072.13;5098980;28;20036;-57
2022/09/01 07:25:20;;;;;;;2.83;1.55;;;;;;;27.86;41.60;99072.97;5091432;28;20043;-62
2022/09/01 07:27:49;;;;;;;3.50;1.60;;;;;;;27.83;41.65;99071.00;5089509;28;20056;-61
2022/09/01 07:30:19;;;;;;;3.65;2.78;;;;;;;27.86;41.52;99078.56;5096737;28;20133;-61
2022/09/01 07:32:46;;;;;;;3.83;2.45;;;;;;;27.90;41.51;99075.69;5091735;28;20100;-61
2022/09/01 07:35:13;;;;;;;3.70;2.22;;;;;;;27.92;41.64;99081.66;5096934;28;20044;-62
2022/09/01 07:37:39;;;;;;;5.30;2.28;;;;;;;27.86;42.15;99080.56;5098857;28;20036;-61
2022/09/01 07:40:07;;;;;;;3.83;2.10;;;;;;;27.89;41.57;99088.16;5091622;28;20084;-57
2022/09/01 07:42:33;;;;;;;3.08;1.73;;;;;;;27.89;41.74;99083.31;5092982;28;20071;-61
2022/09/01 07:44:59;;;;;;;4.68;1.60;;;;;;;27.92;42.06;99078.84;5100662;28;20082;-57
2022/09/01 07:47:27;;;;;;;3.45;2.00;;;;;;;27.94;41.49;99068.78;5091586;28;20508;-62
2022/09/01 07:49:52;;;;;;;4.85;1.90;;;;;;;27.97;41.42;99073.53;5095315;28;20052;-61
2022/09/01 07:52:19;;;;;;;4.28;2.00;;;;;;;27.96;41.60;99077.56;5093791;28;20380;-61
2022/09/01 07:54:44;;;;;;;5.10;2.00;;;;;;;27.96;41.59;99073.97;5095191;28;20055;-61
2022/09/01 07:57:10;;;;;;;4.57;2.05;;;;;;;27.94;41.65;99074.41;5094290;28;20044;-62
2022/09/01 07:59:35;;;;;;;4.20;1.90;;;;;;;27.97;41.72;99072.72;5087236;28;20048;-63
2022/09/01 08:02:04;;;;;;;3.58;1.92;;;;;;;27.96;41.62;99073.97;5090972;28;20052;-63
2022/09/01 08:04:30;;;;;;;4.35;1.75;;;;;;;27.97;41.44;99072.72;5077389;28;20771;-57
2022/09/01 08:06:56;;;;;;;5.60;2.00;;;;;;;27.97;41.34;99067.09;5104286;28;20454;-57
2022/09/01 08:09:22;;;;;;;3.42;2.00;;;;;;;27.95;41.31;99061.91;5092892;28;20408;-58
2022/09/01 08:11:47;;;;;;;3.00;1.90;;;;;;;27.96;41.30;99062.72;5103203;28;20612;-62
2022/09/01 08:14:12;;;;;;;3.63;2.03;;;;;;;27.92;41.23;99059.97;5082487;28;20063;-63
2022/09/01 08:16:38;;;;;;;3.42;1.83;;;;;;;27.95;41.10;99049.88;5097413;28;20040;-63
2022/09/01 08:19:03;;;;;;;4.75;2.00;;;;;;;27.90;41.59;99053.19;5099406;28;20135;-62
2022/09/01 08:21:29;;;;;;;6.28;2.08;;;;;;;27.89;41.33;99062.84;5088878;28;20052;-57
2022/09/01 08:23:55;;;;;;;3.33;2.00;;;;;;;27.90;41.51;99058.81;5097323;28;20048;-61
2022/09/01 08:26:24;;;;;;;3.63;2.30;;;;;;;27.92;41.55;99068.38;5089804;28;20036;-57
2022/09/01 08:28:50;;;;;;;3.38;1.90;;;;;;;27.93;41.64;99061.56;5091035;28;20130;-57
2022/09/01 08:31:17;;;;;;;5.10;2.13;;;;;;;27.95;41.62;99061.91;5091640;28;20179;-63
2022/09/01 08:33:46;;;;;;;4.68;2.13;;;;;;;27.96;41.49;99060.69;5090268;28;20470;-58
2022/09/01 08:36:14;;;;;;;4.55;2.28;;;;;;;27.97;41.36;99055.84;5095742;28;20051;-62
2022/09/01 08:38:40;;;;;;;3.13;2.20;;;;;;;27.99;41.50;99073.09;5100050;28;20052;-57
2022/09/01 08:41:17;;;;;;;3.97;1.90;;;;;;;28.00;41.27;99068.25;5089667;28;20503;-63
2022/09/01 08:43:59;;;;;;;6.53;2.35;;;;;;;28.00;41.48;99071.84;5096520;28;20040;-57
2022/09/01 08:46:29;;;;;;;3.53;1.98;;;;;;;28.01;41.60;99067.84;5091701;28;20079;-57
2022/09/01 08:48:58;;;;;;;4.25;2.00;;;;;;;28.01;41.66;99067.06;5090265;28;20050;-63
2022/09/01 08:51:50;;;;;;;6.47;2.00;;;;;;;28.06;41.31;99056.06;5093167;28;20047;-57
2022/09/01 08:54:20;;;;;;;3.47;1.87;;;;;;;28.10;40.63;99061.63;5091288;28;20039;-57
2022/09/01 08:56:51;;;;;;;3.72;1.73;;;;;;;28.14;40.50;99062.34;5092427;28;20517;-62
2022/09/01 08:59:19;;;;;;;3.38;1.95;;;;;;;28.13;40.41;99057.94;5094377;28;20065;-62
2022/09/01 09:01:54;;;;;;;3.92;1.88;;;;;;;28.15;40.25;99053.50;5090053;28;20056;-57
2022/09/01 09:04:39;;;;;;;3.35;1.98;;;;;;;28.15;40.37;99056.28;5087424;28;20048;-63
2022/09/01 09:07:35;;;;;;;5.47;2.20;;;;;;;28.14;40.63;99049.06;5092660;28;20455;-62
2022/09/01 09:10:13;;;;;;;7.90;2.28;;;;;;;28.14;40.41;99045.47;5093916;28;20075;-63
2022/09/01 09:12:54;;;;;;;4.40;2.30;;;;;;;28.17;40.61;99047.41;5101895;28;20050;-62
2022/09/01 09:15:38;;;;;;;3.22;2.15;;;;;;;28.17;40.85;99045.41;5089203;28;20109;-62
2022/09/01 09:18:16;;;;;;;4.65;2.08;;;;;;;28.11;40.58;99040.72;5098742;28;20031;-57
2022/09/01 09:20:43;;;;;;;5.07;2.00;;;;;;;28.14;40.09;99034.22;5088942;28;20090;-62
2022/09/01 09:23:20;;;;;;;3.28;2.20;;;;;;;28.12;40.36;99036.66;5093076;28;20538;-62
2022/09/01 09:25:45;;;;;;;8.40;2.08;;;;;;;28.06;40.03;99030.75;5093909;28;20494;-62
2022/09/01 09:28:11;;;;;;;3.90;1.98;;;;;;;28.06;40.13;99027.16;5101776;28;20055;-62
2022/09/01 09:30:36;;;;;;;6.78;2.20;;;;;;;28.10;40.14;99037.13;5099798;28;20447;-62
2022/09/01 09:33:05;;;;;;;3.60;1.80;;;;;;;28.08;40.60;99028.31;5093121;28;20085;-57
2022/09/01 09:35:40;;;;;;;3.72;2.10;;;;;;;28.07;40.94;99020.31;5091176;28;20093;-57
2022/09/01 09:38:10;;;;;;;3.35;2.20;;;;;;;28.04;40.77;99018.38;5090550;28;20036;-62
2022/09/01 09:40:36;;;;;;;4.65;2.13;;;;;;;28.06;40.67;99013.88;5089738;28;20105;-61
2022/09/01 09:43:05;;;;;;;3.75;2.03;;;;;;;28.07;39.92;99006.25;5093397;28;20044;-57
2022/09/01 09:45:39;;;;;;;2.75;1.70;;;;;;;28.06;39.95;99002.63;5101632;28;20396;-57
2022/09/01 09:48:25;;;;;;;6.03;2.35;;;;;;;28.11;40.34;99006.97;5088930;28;20048;-57
2022/09/01 09:50:50;;;;;;;4.55;1.98;;;;;;;28.14;40.23;99004.06;5096607;28;20056;-62
2022/09/01 09:53:31;;;;;;;4.25;2.08;;;;;;;28.18;40.16;99009.63;5096360;28;20418;-64
2022/09/01 09:56:16;;;;;;;4.53;1.98;;;;;;;28.23;40.11;98995.06;5090413;28;20047;-62
2022/09/01 09:58:45;;;;;;;2.50;1.80;;;;;;;28.29;40.04;98996.13;5092490;28;20400;-56
2022/09/01 10:01:28;;;;;;;4.18;2.70;;;;;;;28.34;39.86;98995.63;5097950;28;20056;-56
2022/09/01 10:03:59;;;;;;;6.32;3.30;;;;;;;28.38;39.86;98981.50;5090383;28;20716;-63
2022/09/01 10:06:33;;;;;;;5.13;3.28;;;;;;;28.41;39.59;98984.22;5091213;28;20043;-56
2022/09/01 10:09:05;;;;;;;5.63;2.50;;;;;;;28.39;39.42;98975.44;5091588;28;20047;-56
2022/09/01 10:11:37;;;;;;;4.87;2.37;;;;;;;28.42;39.25;98977.34;5088737;28;20036;-57
2022/09/01 10:14:13;;;;;;;4.63;2.30;;;;;;;28.41;39.08;98970.16;5087805;28;20087;-61
2022/09/01 10:16:41;;;;;;;2.85;1.83;;;;;;;28.40;38.56;98964.97;5093081;28;20040;-56
2022/09/01 10:19:11;;;;;;;4.57;1.90;;;;;;;28.42;38.37;98963.28;5095230;28;20044;-56
2022/09/01 10:21:40;;;;;;;3.20;1.90;;;;;;;28.42;38.88;98957.66;5069388;28;20407;-61
2022/09/01 10:24:34;;;;;;;2.42;1.73;;;;;;;28.44;39.18;98952.41;5093558;28;20032;-56
2022/09/01 10:27:03;;;;;;;3.70;1.80;;;;;;;28.50;38.59;98967.53;5087982;28;20499;-56
2022/09/01 10:29:51;;;;;;;2.33;1.38;;;;;;;28.50;38.13;98958.28;5088352;28;20036;-60
2022/09/01 10:32:25;;;;;;;2.13;1.40;;;;;;;28.56;37.85;98955.75;5087218;28;20044;-61
2022/09/01 10:34:51;;;;;;;2.40;1.60;;;;;;;28.56;37.72;98961.38;5096841;28;20060;-61
2022/09/01 10:37:17;;;;;;;2.05;1.30;;;;;;;28.56;37.51;98958.56;5090120;28;20067;-57
2022/09/01 10:40:16;;;;;;;3.05;1.50;;;;;;;28.55;37.44;98956.97;5089842;28;20416;-56
2022/09/01 10:42:45;;;;;;;2.10;1.40;;;;;;;28.51;37.20;98948.63;5087501;28;20542;-61
2022/09/01 10:45:28;;;;;;;2.55;1.50;;;;;;;28.51;37.55;98952.22;5085372;28;20385;-57
2022/09/01 10:47:54;;;;;;;2.35;1.40;;;;;;;28.50;38.20;98944.22;5092978;28;20043;-56
2022/09/01 10:50:31;;;;;;;2.00;1.30;;;;;;;28.52;38.01;98931.31;5087703;28;20044;-57
2022/09/01 10:53:05;;;;;;;2.42;1.20;;;;;;;28.57;37.31;98935.59;5089056;28;20040;-57
2022/09/01 10:55:36;;;;;;;2.20;1.50;;;;;;;28.59;37.04;98926.75;5090023;28;20032;-57
2022/09/01 10:58:20;;;;;;;1.85;1.10;;;;;;;28.62;36.74;98931.47;5091463;28;20044;-57
2022/09/01 11:00:48;;;;;;;1.92;1.30;;;;;;;28.66;36.52;98930.16;5090809;28;20043;-56
2022/09/01 11:03:14;;;;;;;1.77;1.20;;;;;;;28.68;36.30;98927.69;5090773;28;20035;-60
2022/09/01 11:05:55;;;;;;;1.75;1.20;;;;;;;28.69;36.47;98931.28;5092925;28;20102;-57
2022/09/01 11:08:44;;;;;;;2.10;1.20;;;;;;;28.70;36.97;98936.47;5091780;28;20415;-58
2022/09/01 11:11:25;;;;;;;1.90;1.20;;;;;;;28.68;37.08;98924.09;5088460;28;20044;-57
2022/09/01 11:13:53;;;;;;;1.67;1.10;;;;;;;28.68;36.75;98919.25;5087454;28;20051;-63
2022/09/01 11:16:21;;;;;;;4.93;1.40;;;;;;;28.70;36.71;98921.63;5091521;28;20435;-57
2022/09/01 11:18:49;;;;;;;4.68;3.10;;;;;;;28.71;36.34;98906.31;5089569;28;20047;-61
2022/09/01 11:21:37;;;;;;;7.82;4.55;;;;;;;28.73;37.04;98909.50;5087445;28;20130;-61
2022/09/01 11:24:41;;;;;;;6.28;4.50;;;;;;;28.77;37.11;98910.16;5071991;28;20047;-61
2022/09/01 11:27:32;;;;;;;;;;;;;;;28.75;36.32;98909.84;5089861;28;20093;-61
2022/09/01 11:30:01;;;;;;;4.25;2.83;;;;;;;28.62;37.98;98894.88;5092982;28;19923;-57
2022/09/01 11:32:33;;;;;;;4.45;3.15;;;;;;;28.60;37.46;98897.34;5085895;28;20522;-56
2022/09/01 11:35:04;;;;;;;7.50;2.97;;;;;;;28.61;37.44;98896.13;5088139;28;20056;-56
2022/09/01 11:37:32;;;;;;;4.50;3.00;;;;;;;28.62;37.47;98884.41;5093856;28;20077;-55
2022/09/01 11:40:00;;;;;;;3.05;2.28;;;;;;;28.63;37.48;98888.03;5089653;28;20040;-55
2022/09/01 11:42:39;;;;;;;2.85;2.13;;;;;;;28.67;37.69;98888.75;5064651;28;20037;-56
2022/09/01 11:45:18;;;;;;;2.90;2.20;;;;;;;28.64;37.35;98889.59;5088343;28;20052;-55
2022/09/01 11:47:53;;;;;;;4.05;1.73;;;;;;;28.56;38.39;98879.75;5100368;28;20423;-59
2022/09/01 11:50:26;;;;;;;5.35;1.73;;;;;;;28.55;38.15;98878.19;5090606;28;20669;-61
2022/09/01 11:53:02;;;;;;;3.28;1.80;;;;;;;28.56;38.48;98874.94;5090737;28;20089;-53